sensor_id;sensor_type;location;lat;lon;timestamp;temperature;humidity
41080;DHT22;26826;50.718;7.114;2022-07-18T00:09:16;19.20;99.90
41080;DHT22;26826;50.718;7.114;2022-07-18T00:19:18;18.90;99.90
41080;DHT22;26826;50.718;7.114;2022-07-18T00:29:18;18.60;99.90
41080;DHT22;26826;50.718;7.114;2022-07-18T00:39:19;18.30;99.90
41080;DHT22;26826;50.718;7.114;2022-07-18T00:49:20;18.50;99.90
41080;DHT22;26826;50.718;7.114;2022-07-18T00:59:20;18.10;99.90
41080;DHT22;26826;50.718;7.114;2022-07-18T01:09:21;18.00;99.90
41080;DHT22;26826;50.718;7.114;2022-07-18T01:19:22;17.80;99.90
41080;DHT22;26826;50.718;7.114;2022-07-18T01:29:22;17.50;99.90
41080;DHT22;26826;50.718;7.114;2022-07-18T01:49:27;17.40;99.90
41080;DHT22;26826;50.718;7.114;2022-07-18T01:59:29;17.40;99.90
41080;DHT22;26826;50.718;7.114;2022-07-18T02:09:29;17.20;99.90
41080;DHT22;26826;50.718;7.114;2022-07-18T02:19:30;17.00;99.90
41080;DHT22;26826;50.718;7.114;2022-07-18T02:29:30;17.00;99.90
41080;DHT22;26826;50.718;7.114;2022-07-18T02:39:31;16.90;99.90
41080;DHT22;26826;50.718;7.114;2022-07-18T02:49:31;16.80;99.90
41080;DHT22;26826;50.718;7.114;2022-07-18T02:59:33;16.60;99.90
41080;DHT22;26826;50.718;7.114;2022-07-18T03:09:33;16.40;99.90
41080;DHT22;26826;50.718;7.114;2022-07-18T03:19:34;16.50;99.90
41080;DHT22;26826;50.718;7.114;2022-07-18T03:29:35;16.40;99.90
41080;DHT22;26826;50.718;7.114;2022-07-18T03:39:36;16.50;99.90
41080;DHT22;26826;50.718;7.114;2022-07-18T03:49:36;16.30;99.90
41080;DHT22;26826;50.718;7.114;2022-07-18T03:59:37;16.60;99.90
41080;DHT22;26826;50.718;7.114;2022-07-18T04:09:37;16.20;99.90
41080;DHT22;26826;50.718;7.114;2022-07-18T04:19:38;16.10;99.90
41080;DHT22;26826;50.718;7.114;2022-07-18T04:29:38;16.00;99.90
41080;DHT22;26826;50.718;7.114;2022-07-18T04:39:39;16.00;99.90
41080;DHT22;26826;50.718;7.114;2022-07-18T04:49:39;15.80;99.90
41080;DHT22;26826;50.718;7.114;2022-07-18T04:59:44;16.00;99.90
41080;DHT22;26826;50.718;7.114;2022-07-18T05:09:45;16.20;99.90
41080;DHT22;26826;50.718;7.114;2022-07-18T05:19:45;16.40;99.90
41080;DHT22;26826;50.718;7.114;2022-07-18T05:29:46;16.80;99.90
41080;DHT22;26826;50.718;7.114;2022-07-18T05:39:47;16.80;99.90
41080;DHT22;26826;50.718;7.114;2022-07-18T05:49:47;17.20;99.90
41080;DHT22;26826;50.718;7.114;2022-07-18T05:59:48;17.80;99.90
41080;DHT22;26826;50.718;7.114;2022-07-18T06:09:48;18.40;99.90
41080;DHT22;26826;50.718;7.114;2022-07-18T06:19:49;19.30;99.90
41080;DHT22;26826;50.718;7.114;2022-07-18T06:29:49;20.10;99.90
41080;DHT22;26826;50.718;7.114;2022-07-18T06:39:50;20.70;99.90
41080;DHT22;26826;50.718;7.114;2022-07-18T06:49:50;21.40;95.60
41080;DHT22;26826;50.718;7.114;2022-07-18T06:59:51;21.80;93.30
41080;DHT22;26826;50.718;7.114;2022-07-18T07:09:51;22.40;90.60
41080;DHT22;26826;50.718;7.114;2022-07-18T07:19:52;23.00;86.30
41080;DHT22;26826;50.718;7.114;2022-07-18T07:29:52;23.60;83.90
41080;DHT22;26826;50.718;7.114;2022-07-18T07:49:58;24.60;79.20
41080;DHT22;26826;50.718;7.114;2022-07-18T07:59:58;24.90;77.50
41080;DHT22;26826;50.718;7.114;2022-07-18T08:09:59;25.10;76.80
41080;DHT22;26826;50.718;7.114;2022-07-18T08:19:59;26.20;75.90
41080;DHT22;26826;50.718;7.114;2022-07-18T08:30:00;26.90;75.10
41080;DHT22;26826;50.718;7.114;2022-07-18T08:40:01;27.10;73.10
41080;DHT22;26826;50.718;7.114;2022-07-18T08:50:02;27.50;72.00
41080;DHT22;26826;50.718;7.114;2022-07-18T09:00:06;27.70;70.60
41080;DHT22;26826;50.718;7.114;2022-07-18T09:10:07;28.60;71.20
41080;DHT22;26826;50.718;7.114;2022-07-18T09:20:13;29.60;69.50
41080;DHT22;26826;50.718;7.114;2022-07-18T09:30:25;30.40;65.70
41080;DHT22;26826;50.718;7.114;2022-07-18T09:40:35;30.40;64.20
41080;DHT22;26826;50.718;7.114;2022-07-18T09:50:50;30.40;63.80
41080;DHT22;26826;50.718;7.114;2022-07-18T10:01:03;31.80;61.80
41080;DHT22;26826;50.718;7.114;2022-07-18T10:11:05;32.70;58.80
41080;DHT22;26826;50.718;7.114;2022-07-18T10:21:13;32.10;57.40
41080;DHT22;26826;50.718;7.114;2022-07-18T10:31:16;32.70;55.90
41080;DHT22;26826;50.718;7.114;2022-07-18T10:41:17;32.70;54.90
41080;DHT22;26826;50.718;7.114;2022-07-18T10:51:17;32.70;55.20
41080;DHT22;26826;50.718;7.114;2022-07-18T11:01:19;34.50;52.70
41080;DHT22;26826;50.718;7.114;2022-07-18T11:11:20;34.90;52.80
41080;DHT22;26826;50.718;7.114;2022-07-18T11:31:23;35.50;52.60
41080;DHT22;26826;50.718;7.114;2022-07-18T11:41:23;36.00;50.50
41080;DHT22;26826;50.718;7.114;2022-07-18T11:51:24;37.60;49.70
41080;DHT22;26826;50.718;7.114;2022-07-18T12:01:31;38.20;48.90
41080;DHT22;26826;50.718;7.114;2022-07-18T12:11:36;36.80;50.30
41080;DHT22;26826;50.718;7.114;2022-07-18T12:21:55;38.40;49.10
41080;DHT22;26826;50.718;7.114;2022-07-18T12:31:56;38.50;49.60
41080;DHT22;26826;50.718;7.114;2022-07-18T12:41:58;39.00;47.90
41080;DHT22;26826;50.718;7.114;2022-07-18T12:51:59;38.00;48.20
41080;DHT22;26826;50.718;7.114;2022-07-18T13:01:59;39.10;49.00
41080;DHT22;26826;50.718;7.114;2022-07-18T13:12:00;39.70;48.30
41080;DHT22;26826;50.718;7.114;2022-07-18T13:22:00;40.20;47.50
41080;DHT22;26826;50.718;7.114;2022-07-18T13:32:01;40.20;47.20
41080;DHT22;26826;50.718;7.114;2022-07-18T13:52:07;40.20;46.80
41080;DHT22;26826;50.718;7.114;2022-07-18T14:02:07;40.10;46.90
41080;DHT22;26826;50.718;7.114;2022-07-18T14:12:08;40.20;47.40
41080;DHT22;26826;50.718;7.114;2022-07-18T14:22:08;39.10;47.10
41080;DHT22;26826;50.718;7.114;2022-07-18T14:32:10;40.20;46.50
41080;DHT22;26826;50.718;7.114;2022-07-18T14:42:11;40.20;45.90
41080;DHT22;26826;50.718;7.114;2022-07-18T14:52:12;40.00;47.50
41080;DHT22;26826;50.718;7.114;2022-07-18T15:02:13;39.70;46.60
41080;DHT22;26826;50.718;7.114;2022-07-18T15:12:14;40.30;46.80
41080;DHT22;26826;50.718;7.114;2022-07-18T15:22:15;40.30;46.30
41080;DHT22;26826;50.718;7.114;2022-07-18T15:32:16;40.30;45.80
41080;DHT22;26826;50.718;7.114;2022-07-18T15:42:16;40.20;46.40
41080;DHT22;26826;50.718;7.114;2022-07-18T15:52:17;39.80;46.30
41080;DHT22;26826;50.718;7.114;2022-07-18T16:02:17;38.50;47.00
41080;DHT22;26826;50.718;7.114;2022-07-18T16:12:18;39.00;46.30
41080;DHT22;26826;50.718;7.114;2022-07-18T16:22:18;39.50;46.90
41080;DHT22;26826;50.718;7.114;2022-07-18T16:32:19;40.00;45.90
41080;DHT22;26826;50.718;7.114;2022-07-18T16:42:20;40.00;45.80
41080;DHT22;26826;50.718;7.114;2022-07-18T16:52:20;38.20;46.50
41080;DHT22;26826;50.718;7.114;2022-07-18T17:02:22;37.10;47.90
41080;DHT22;26826;50.718;7.114;2022-07-18T17:12:23;37.80;46.80
41080;DHT22;26826;50.718;7.114;2022-07-18T17:22:24;38.10;46.60
41080;DHT22;26826;50.718;7.114;2022-07-18T17:32:25;37.90;47.20
41080;DHT22;26826;50.718;7.114;2022-07-18T17:42:26;38.80;46.80
41080;DHT22;26826;50.718;7.114;2022-07-18T17:52:27;39.50;46.30
41080;DHT22;26826;50.718;7.114;2022-07-18T18:02:27;39.20;47.10
41080;DHT22;26826;50.718;7.114;2022-07-18T18:12:28;38.10;47.60
41080;DHT22;26826;50.718;7.114;2022-07-18T18:22:28;37.80;48.00
41080;DHT22;26826;50.718;7.114;2022-07-18T18:32:29;36.70;49.10
41080;DHT22;26826;50.718;7.114;2022-07-18T18:42:30;37.00;48.90
41080;DHT22;26826;50.718;7.114;2022-07-18T18:52:30;35.90;49.60
41080;DHT22;26826;50.718;7.114;2022-07-18T19:02:31;34.70;51.10
41080;DHT22;26826;50.718;7.114;2022-07-18T19:12:32;33.60;53.10
41080;DHT22;26826;50.718;7.114;2022-07-18T19:22:32;32.90;55.10
41080;DHT22;26826;50.718;7.114;2022-07-18T19:32:33;32.00;56.00
41080;DHT22;26826;50.718;7.114;2022-07-18T19:52:37;30.30;59.80
41080;DHT22;26826;50.718;7.114;2022-07-18T20:02:38;29.90;60.30
41080;DHT22;26826;50.718;7.114;2022-07-18T20:12:38;29.50;60.40
41080;DHT22;26826;50.718;7.114;2022-07-18T20:22:39;28.90;61.80
41080;DHT22;26826;50.718;7.114;2022-07-18T20:32:40;28.50;62.30
41080;DHT22;26826;50.718;7.114;2022-07-18T20:42:42;28.30;64.10
41080;DHT22;26826;50.718;7.114;2022-07-18T20:52:42;27.70;65.80
41080;DHT22;26826;50.718;7.114;2022-07-18T21:02:43;27.20;65.70
41080;DHT22;26826;50.718;7.114;2022-07-18T21:12:44;26.70;67.30
41080;DHT22;26826;50.718;7.114;2022-07-18T21:22:45;26.80;67.60
41080;DHT22;26826;50.718;7.114;2022-07-18T21:32:49;26.30;68.60
41080;DHT22;26826;50.718;7.114;2022-07-18T21:42:51;25.90;70.00
41080;DHT22;26826;50.718;7.114;2022-07-18T21:52:52;25.50;70.90
41080;DHT22;26826;50.718;7.114;2022-07-18T22:02:52;25.50;71.00
41080;DHT22;26826;50.718;7.114;2022-07-18T22:12:53;25.20;71.60
41080;DHT22;26826;50.718;7.114;2022-07-18T22:22:53;25.00;72.30
41080;DHT22;26826;50.718;7.114;2022-07-18T22:32:54;24.70;73.00
41080;DHT22;26826;50.718;7.114;2022-07-18T22:42:54;24.30;75.00
41080;DHT22;26826;50.718;7.114;2022-07-18T22:52:55;24.10;76.10
41080;DHT22;26826;50.718;7.114;2022-07-18T23:02:56;23.90;77.00
41080;DHT22;26826;50.718;7.114;2022-07-18T23:12:57;23.70;78.10
41080;DHT22;26826;50.718;7.114;2022-07-18T23:22:57;24.10;77.30
41080;DHT22;26826;50.718;7.114;2022-07-18T23:32:58;23.40;80.00
41080;DHT22;26826;50.718;7.114;2022-07-18T23:42:59;23.20;81.50
41080;DHT22;26826;50.718;7.114;2022-07-18T23:53:00;22.90;85.40
